createdAt,value
2023-07-30T00:02:01.713Z,21.60
2023-07-30T00:04:32.461Z,21.60
2023-07-30T00:07:04.701Z,21.60
2023-07-30T00:09:31.404Z,21.70
2023-07-30T00:12:00.314Z,21.60
2023-07-30T00:14:29.547Z,21.80
2023-07-30T00:16:56.264Z,21.70
2023-07-30T00:19:25.580Z,21.60
2023-07-30T00:21:52.332Z,21.30
2023-07-30T00:24:19.123Z,21.60
2023-07-30T00:26:46.027Z,21.60
2023-07-30T00:29:12.720Z,21.30
2023-07-30T00:31:42.019Z,20.70
2023-07-30T00:34:09.029Z,21.10
2023-07-30T00:36:38.303Z,21.40
2023-07-30T00:39:05.024Z,21.50
2023-07-30T00:41:31.781Z,21.60
2023-07-30T00:44:00.856Z,21.80
2023-07-30T00:46:30.061Z,21.80
2023-07-30T00:48:56.884Z,21.70
2023-07-30T00:51:25.195Z,21.50
2023-07-30T00:53:52.087Z,21.20
2023-07-30T00:56:18.818Z,21.30
2023-07-30T00:58:49.938Z,21.10
2023-07-30T01:01:16.868Z,21.10
2023-07-30T01:03:45.939Z,20.80
2023-07-30T01:06:12.727Z,20.80
2023-07-30T01:08:39.840Z,21.10
2023-07-30T01:11:06.943Z,21.10
2023-07-30T01:13:35.891Z,20.90
2023-07-30T01:16:04.415Z,20.90
2023-07-30T01:18:31.238Z,21.00
2023-07-30T01:21:01.315Z,21.00
2023-07-30T01:23:28.154Z,20.60
2023-07-30T01:26:06.185Z,20.70
2023-07-30T01:28:39.305Z,20.80
2023-07-30T01:31:07.584Z,21.00
2023-07-30T01:33:34.641Z,20.70
2023-07-30T01:36:03.072Z,20.70
2023-07-30T01:38:30.975Z,20.20
2023-07-30T01:40:57.829Z,20.40
2023-07-30T01:43:24.508Z,20.60
2023-07-30T01:45:51.321Z,20.50
2023-07-30T01:48:18.264Z,20.60
2023-07-30T01:50:48.098Z,20.60
2023-07-30T01:53:17.219Z,20.60
2023-07-30T01:55:44.855Z,20.40
2023-07-30T01:58:11.675Z,20.40
2023-07-30T02:00:38.452Z,20.50
2023-07-30T02:03:05.553Z,20.60
2023-07-30T02:05:34.759Z,20.80
2023-07-30T02:08:03.884Z,20.80
2023-07-30T02:10:30.665Z,20.90
2023-07-30T02:12:57.370Z,20.90
2023-07-30T02:15:26.342Z,21.00
2023-07-30T02:17:53.138Z,21.10
2023-07-30T02:20:22.397Z,21.10
2023-07-30T02:22:51.316Z,21.10
2023-07-30T02:25:18.099Z,21.10
2023-07-30T02:27:48.704Z,21.10
2023-07-30T02:30:17.982Z,21.10
2023-07-30T02:32:44.787Z,20.80
2023-07-30T02:35:11.524Z,21.00
2023-07-30T02:37:38.198Z,21.00
2023-07-30T02:40:05.982Z,21.00
2023-07-30T02:42:32.826Z,20.70
2023-07-30T02:44:59.495Z,20.60
2023-07-30T02:47:28.708Z,20.30
2023-07-30T02:49:55.585Z,20.40
2023-07-30T02:52:24.553Z,20.30
2023-07-30T02:54:51.231Z,20.10
2023-07-30T02:57:18.094Z,20.00
2023-07-30T02:59:44.788Z,19.90
2023-07-30T03:02:11.653Z,19.80
2023-07-30T03:04:38.428Z,19.60
2023-07-30T03:07:05.601Z,19.50
2023-07-30T03:09:32.359Z,19.30
2023-07-30T03:11:59.076Z,19.50
2023-07-30T03:14:25.999Z,19.50
2023-07-30T03:16:52.741Z,19.60
2023-07-30T03:19:19.502Z,19.60
2023-07-30T03:21:48.400Z,19.50
2023-07-30T03:24:17.709Z,19.80
2023-07-30T03:26:46.707Z,19.70
2023-07-30T03:29:13.431Z,19.50
2023-07-30T03:31:40.371Z,19.30
2023-07-30T03:34:12.469Z,19.40
2023-07-30T03:36:39.147Z,19.30
2023-07-30T03:39:05.868Z,19.40
2023-07-30T03:41:36.738Z,19.50
2023-07-30T03:44:03.726Z,19.70
2023-07-30T03:46:30.466Z,19.80
2023-07-30T03:48:57.173Z,19.50
2023-07-30T03:51:23.980Z,19.50
2023-07-30T03:53:50.657Z,19.70
2023-07-30T03:56:19.887Z,19.80
2023-07-30T03:58:46.559Z,19.80
2023-07-30T04:01:13.317Z,20.00
2023-07-30T04:03:40.197Z,20.10
2023-07-30T04:06:09.591Z,20.10
2023-07-30T04:08:36.312Z,19.90
2023-07-30T04:11:02.999Z,19.90
2023-07-30T04:13:32.581Z,19.60
2023-07-30T04:15:59.276Z,19.70
2023-07-30T04:18:25.971Z,19.50
2023-07-30T04:20:56.076Z,19.70
2023-07-30T04:23:22.984Z,19.60
2023-07-30T04:25:52.448Z,19.30
2023-07-30T04:28:21.438Z,19.10
2023-07-30T04:30:48.361Z,19.10
2023-07-30T04:33:18.323Z,18.90
2023-07-30T04:35:47.530Z,18.60
2023-07-30T04:38:14.303Z,18.50
2023-07-30T04:40:41.005Z,18.60
2023-07-30T04:43:08.197Z,18.60
2023-07-30T04:45:39.683Z,18.60
2023-07-30T04:48:06.517Z,18.60
2023-07-30T04:50:35.805Z,18.70
2023-07-30T04:53:05.070Z,18.70
2023-07-30T04:55:31.739Z,18.50
2023-07-30T04:57:58.435Z,18.60
2023-07-30T05:00:25.124Z,18.60
2023-07-30T05:02:54.154Z,18.80
2023-07-30T05:05:23.085Z,18.80
2023-07-30T05:07:51.907Z,18.60
2023-07-30T05:10:18.670Z,18.60
2023-07-30T05:12:45.343Z,18.50
2023-07-30T05:15:14.530Z,18.30
2023-07-30T05:17:43.723Z,18.30
2023-07-30T05:20:10.907Z,18.50
2023-07-30T05:22:37.590Z,18.60
2023-07-30T05:25:06.820Z,18.60
2023-07-30T05:27:33.617Z,18.70
2023-07-30T05:30:00.315Z,18.60
2023-07-30T05:32:29.581Z,18.50
2023-07-30T05:34:58.508Z,18.20
2023-07-30T05:37:25.261Z,18.10
2023-07-30T05:39:51.977Z,18.20
2023-07-30T05:42:21.088Z,18.30
2023-07-30T05:44:47.858Z,18.40
2023-07-30T05:47:17.055Z,18.40
2023-07-30T05:49:43.706Z,18.20
2023-07-30T05:52:10.396Z,18.40
2023-07-30T05:54:37.105Z,18.40
2023-07-30T05:57:04.052Z,18.40
2023-07-30T05:59:32.894Z,18.40
2023-07-30T06:02:04.033Z,18.20
2023-07-30T06:04:33.648Z,18.10
2023-07-30T06:07:04.329Z,18.00
2023-07-30T06:09:31.252Z,18.30
2023-07-30T06:12:00.592Z,18.30
2023-07-30T06:14:27.819Z,18.30
2023-07-30T06:16:57.483Z,18.40
2023-07-30T06:19:24.384Z,18.20
2023-07-30T06:21:51.045Z,18.10
2023-07-30T06:24:17.747Z,18.10
2023-07-30T06:26:44.441Z,18.20
2023-07-30T06:29:11.194Z,18.40
2023-07-30T06:31:42.898Z,18.50
2023-07-30T06:34:09.682Z,18.40
2023-07-30T06:36:38.572Z,18.50
2023-07-30T06:39:07.429Z,18.30
2023-07-30T06:41:34.140Z,18.40
2023-07-30T06:44:03.320Z,18.20
2023-07-30T06:46:30.140Z,18.30
2023-07-30T06:48:57.194Z,18.40
2023-07-30T06:51:26.410Z,18.30
2023-07-30T06:53:55.456Z,18.40
2023-07-30T06:56:22.183Z,18.40
2023-07-30T06:58:51.109Z,18.60
2023-07-30T07:01:20.333Z,18.60
2023-07-30T07:03:49.704Z,18.60
2023-07-30T07:06:18.895Z,18.50
2023-07-30T07:08:46.934Z,18.50
2023-07-30T07:11:13.698Z,18.60
2023-07-30T07:13:42.896Z,18.70
2023-07-30T07:16:09.952Z,18.70
2023-07-30T07:18:38.829Z,18.60
2023-07-30T07:21:05.534Z,18.60
2023-07-30T07:23:32.271Z,18.70
2023-07-30T07:25:59.114Z,18.80
2023-07-30T07:28:25.940Z,18.70
2023-07-30T07:30:52.728Z,18.70
2023-07-30T07:33:19.627Z,18.60
2023-07-30T07:35:46.922Z,18.60
2023-07-30T07:38:13.626Z,18.60
2023-07-30T07:40:40.873Z,18.50
2023-07-30T07:43:08.880Z,18.60
2023-07-30T07:45:35.818Z,18.70
2023-07-30T07:48:02.608Z,18.70
2023-07-30T07:50:29.393Z,18.80
2023-07-30T07:52:58.387Z,18.80
2023-07-30T07:55:25.041Z,18.70
2023-07-30T07:57:53.996Z,18.80
2023-07-30T08:00:20.750Z,19.00
2023-07-30T08:02:50.371Z,19.20
2023-07-30T08:05:20.979Z,19.20
2023-07-30T08:07:50.335Z,18.90
2023-07-30T08:10:17.161Z,18.90
2023-07-30T08:12:48.502Z,18.60
2023-07-30T08:15:15.169Z,18.70
2023-07-30T08:17:44.272Z,18.70
2023-07-30T08:20:11.548Z,18.80
2023-07-30T08:22:38.262Z,18.70
2023-07-30T08:25:05.927Z,18.70
2023-07-30T08:27:34.995Z,18.80
2023-07-30T08:30:04.420Z,18.70
2023-07-30T08:32:31.168Z,18.70
2023-07-30T08:34:57.885Z,18.70
2023-07-30T08:37:27.032Z,18.60
2023-07-30T08:39:56.292Z,18.70
2023-07-30T08:42:26.015Z,18.80
2023-07-30T08:44:54.958Z,18.80
2023-07-30T08:47:21.814Z,18.80
2023-07-30T08:49:50.739Z,18.90
2023-07-30T08:52:21.732Z,19.00
2023-07-30T08:54:52.827Z,18.80
2023-07-30T08:57:20.900Z,18.90
2023-07-30T08:59:51.647Z,18.90
2023-07-30T09:02:42.845Z,19.10
2023-07-30T09:05:12.672Z,19.10
2023-07-30T09:07:39.397Z,19.30
2023-07-30T09:10:06.978Z,19.20
2023-07-30T09:12:37.043Z,19.10
2023-07-30T09:15:07.450Z,19.10
2023-07-30T09:17:35.165Z,19.20
2023-07-30T09:20:04.151Z,19.20
2023-07-30T09:22:37.442Z,19.10
2023-07-30T09:25:04.887Z,19.20
2023-07-30T09:27:34.082Z,19.20
2023-07-30T09:30:02.150Z,19.10
2023-07-30T09:32:29.532Z,19.30
2023-07-30T09:34:59.433Z,19.40
2023-07-30T09:37:26.185Z,19.40
2023-07-30T09:39:52.918Z,19.60
2023-07-30T09:42:19.614Z,19.60
2023-07-30T09:44:48.545Z,19.70
2023-07-30T09:47:17.415Z,19.80
2023-07-30T09:49:48.919Z,19.80
2023-07-30T09:52:18.435Z,19.90
2023-07-30T09:54:49.425Z,19.90
2023-07-30T09:57:17.961Z,19.90
2023-07-30T09:59:44.738Z,19.90
2023-07-30T10:02:12.761Z,19.90
2023-07-30T10:04:44.399Z,19.90
2023-07-30T10:07:17.313Z,19.90
2023-07-30T10:09:46.736Z,20.00
2023-07-30T10:12:25.966Z,20.00
2023-07-30T10:14:55.024Z,20.20
2023-07-30T10:17:21.848Z,20.20
2023-07-30T10:19:52.700Z,20.20
2023-07-30T10:22:19.370Z,20.10
2023-07-30T10:25:04.337Z,20.20
2023-07-30T10:27:44.386Z,20.20
2023-07-30T10:30:16.188Z,20.30
2023-07-30T10:33:01.573Z,20.30
2023-07-30T10:35:37.656Z,20.30
2023-07-30T10:38:15.198Z,20.40
2023-07-30T10:40:42.817Z,20.40
2023-07-30T10:43:19.182Z,20.50
2023-07-30T10:45:52.568Z,20.60
2023-07-30T10:48:19.689Z,20.60
2023-07-30T10:50:49.887Z,20.50
2023-07-30T10:53:17.563Z,20.50
2023-07-30T10:55:44.923Z,20.60
2023-07-30T10:58:14.652Z,20.60
2023-07-30T11:00:45.988Z,20.60
2023-07-30T11:03:15.372Z,20.60
2023-07-30T11:05:44.402Z,20.60
2023-07-30T11:08:13.572Z,20.60
2023-07-30T11:10:48.978Z,20.60
2023-07-30T11:13:18.163Z,20.80
2023-07-30T11:15:45.205Z,20.80
2023-07-30T11:18:13.525Z,20.90
2023-07-30T11:20:40.705Z,20.90
2023-07-30T11:23:21.716Z,20.90
2023-07-30T11:25:50.433Z,20.80
2023-07-30T11:28:37.484Z,20.80
2023-07-30T11:31:13.756Z,20.80
2023-07-30T11:33:50.100Z,20.90
2023-07-30T11:36:24.557Z,21.10
2023-07-30T11:38:54.238Z,21.10
2023-07-30T11:41:23.026Z,21.10
2023-07-30T11:43:49.813Z,20.90
2023-07-30T11:46:18.358Z,21.10
2023-07-30T11:48:52.362Z,21.10
2023-07-30T11:51:27.202Z,20.90
2023-07-30T11:53:56.297Z,20.90
2023-07-30T11:56:24.589Z,20.80
2023-07-30T11:58:58.759Z,20.70
2023-07-30T12:01:33.224Z,20.50
2023-07-30T12:04:01.417Z,20.50
2023-07-30T12:06:47.644Z,20.50
2023-07-30T12:09:20.017Z,20.50
2023-07-30T12:11:56.765Z,20.40
2023-07-30T12:14:30.994Z,20.30
2023-07-30T12:16:58.689Z,20.30
2023-07-30T12:19:25.433Z,20.20
2023-07-30T12:21:56.882Z,20.10
2023-07-30T12:24:23.705Z,20.20
2023-07-30T12:26:55.865Z,20.20
2023-07-30T12:29:23.419Z,20.10
2023-07-30T12:31:52.881Z,20.20
2023-07-30T12:34:20.184Z,20.30
2023-07-30T12:36:47.166Z,20.20
2023-07-30T12:39:14.436Z,20.20
2023-07-30T12:41:41.401Z,20.10
2023-07-30T12:44:08.428Z,20.10
2023-07-30T12:46:35.159Z,20.20
2023-07-30T12:49:05.486Z,20.40
2023-07-30T12:51:33.156Z,20.60
2023-07-30T12:54:04.580Z,20.80
2023-07-30T12:56:31.265Z,21.00
2023-07-30T12:59:00.195Z,21.10
2023-07-30T13:01:29.232Z,21.40
2023-07-30T13:03:56.020Z,21.50
2023-07-30T13:06:22.791Z,21.60
2023-07-30T13:08:51.825Z,21.80
2023-07-30T13:11:20.782Z,22.10
2023-07-30T13:13:52.123Z,22.20
2023-07-30T13:16:18.942Z,22.40
2023-07-30T13:18:45.669Z,22.50
2023-07-30T13:21:12.352Z,22.50
2023-07-30T13:23:39.054Z,22.60
2023-07-30T13:26:08.293Z,22.50
2023-07-30T13:28:35.132Z,22.40
2023-07-30T13:31:04.408Z,22.30
2023-07-30T13:33:31.125Z,22.20
2023-07-30T13:35:57.810Z,22.40
2023-07-30T13:38:27.658Z,22.60
2023-07-30T13:40:54.867Z,22.60
2023-07-30T13:43:21.728Z,22.60
2023-07-30T13:45:51.308Z,22.60
2023-07-30T13:48:20.594Z,22.40
2023-07-30T13:50:47.334Z,22.40
2023-07-30T13:53:14.844Z,22.50
2023-07-30T13:55:41.686Z,22.60
2023-07-30T13:58:09.147Z,22.60
2023-07-30T14:00:38.346Z,22.80
2023-07-30T14:03:10.710Z,22.80
2023-07-30T14:05:40.102Z,22.80
2023-07-30T14:08:06.854Z,22.90
2023-07-30T14:10:33.595Z,22.90
2023-07-30T14:13:00.360Z,23.00
2023-07-30T14:15:27.261Z,23.20
2023-07-30T14:17:55.540Z,23.40
2023-07-30T14:20:22.804Z,23.50
2023-07-30T14:22:52.777Z,23.60
2023-07-30T14:25:19.539Z,23.70
2023-07-30T14:27:46.244Z,23.90
2023-07-30T14:30:13.085Z,24.00
2023-07-30T14:32:39.829Z,24.10
2023-07-30T14:35:07.154Z,24.10
2023-07-30T14:37:36.352Z,24.10
2023-07-30T14:40:05.726Z,24.10
2023-07-30T14:42:34.736Z,24.20
2023-07-30T14:45:01.434Z,24.20
2023-07-30T14:47:28.229Z,24.30
2023-07-30T14:49:54.966Z,24.30
2023-07-30T14:52:22.017Z,24.20
2023-07-30T14:54:48.717Z,24.30
2023-07-30T14:57:15.424Z,24.30
2023-07-30T14:59:42.377Z,24.50
2023-07-30T15:02:09.452Z,24.50
2023-07-30T15:04:36.142Z,24.40
2023-07-30T15:07:05.728Z,24.30
2023-07-30T15:09:36.274Z,24.20
2023-07-30T15:12:10.467Z,24.10
2023-07-30T15:14:37.177Z,24.10
2023-07-30T15:17:07.367Z,24.10
2023-07-30T15:19:36.360Z,24.10
2023-07-30T15:22:05.991Z,24.30
2023-07-30T15:24:33.164Z,24.30
2023-07-30T15:26:59.828Z,24.40
2023-07-30T15:29:26.504Z,24.60
2023-07-30T15:31:53.287Z,24.60
2023-07-30T15:34:20.004Z,24.80
2023-07-30T15:36:46.810Z,24.90
2023-07-30T15:39:13.635Z,24.90
2023-07-30T15:41:42.682Z,25.10
2023-07-30T15:44:09.369Z,25.20
2023-07-30T15:46:36.154Z,25.20
2023-07-30T15:49:03.024Z,25.20
2023-07-30T15:51:29.869Z,25.20
2023-07-30T15:53:56.671Z,25.20
2023-07-30T15:56:25.630Z,25.10
2023-07-30T15:58:52.353Z,25.10
2023-07-30T16:01:21.312Z,25.10
2023-07-30T16:03:48.132Z,25.10
2023-07-30T16:06:17.261Z,25.30
2023-07-30T16:08:43.946Z,25.30
2023-07-30T16:11:14.983Z,25.40
2023-07-30T16:13:41.748Z,25.50
2023-07-30T16:16:21.257Z,25.50
2023-07-30T16:18:48.741Z,25.40
2023-07-30T16:21:15.845Z,25.40
2023-07-30T16:23:42.783Z,25.40
2023-07-30T16:26:10.590Z,25.40
2023-07-30T16:28:37.377Z,25.30
2023-07-30T16:31:04.172Z,25.20
2023-07-30T16:33:31.004Z,25.00
2023-07-30T16:35:57.748Z,24.90
2023-07-30T16:38:24.510Z,24.80
2023-07-30T16:40:52.440Z,24.70
2023-07-30T16:43:21.742Z,24.70
2023-07-30T16:45:50.752Z,24.70
2023-07-30T16:48:19.648Z,24.80
2023-07-30T16:50:49.715Z,24.60
2023-07-30T16:53:18.757Z,24.60
2023-07-30T16:55:45.459Z,24.40
2023-07-30T16:58:14.408Z,24.30
2023-07-30T17:00:41.170Z,24.00
2023-07-30T17:03:10.612Z,24.00
2023-07-30T17:05:37.382Z,23.90
2023-07-30T17:08:08.728Z,23.80
2023-07-30T17:10:41.431Z,23.70
2023-07-30T17:13:09.217Z,23.80
2023-07-30T17:15:39.059Z,23.90
2023-07-30T17:18:06.613Z,23.60
2023-07-30T17:20:34.180Z,23.30
2023-07-30T17:23:00.942Z,23.20
2023-07-30T17:25:27.640Z,23.20
2023-07-30T17:27:54.433Z,22.90
2023-07-30T17:30:23.860Z,22.80
2023-07-30T17:32:52.887Z,22.80
2023-07-30T17:35:21.812Z,22.60
2023-07-30T17:37:48.495Z,22.30
2023-07-30T17:40:17.426Z,22.10
2023-07-30T17:42:44.184Z,21.90
2023-07-30T17:45:11.103Z,21.90
2023-07-30T17:47:37.970Z,21.80
2023-07-30T17:50:05.054Z,21.60
2023-07-30T17:52:36.421Z,21.40
2023-07-30T17:55:03.286Z,21.50
2023-07-30T17:57:29.978Z,21.20
2023-07-30T17:59:56.725Z,21.10
2023-07-30T18:02:25.896Z,21.10
2023-07-30T18:04:52.810Z,21.10
2023-07-30T18:07:19.495Z,21.20
2023-07-30T18:09:46.254Z,21.50
2023-07-30T18:12:13.200Z,21.50
2023-07-30T18:14:40.076Z,21.40
2023-07-30T18:17:06.953Z,21.50
2023-07-30T18:19:33.641Z,21.50
2023-07-30T18:22:00.608Z,21.50
2023-07-30T18:24:28.221Z,21.50
2023-07-30T18:26:54.916Z,21.50
2023-07-30T18:29:21.910Z,21.50
2023-07-30T18:31:53.118Z,21.50
2023-07-30T18:34:22.389Z,21.50
2023-07-30T18:36:49.142Z,21.20
2023-07-30T18:39:15.842Z,21.10
2023-07-30T18:41:43.344Z,21.20
2023-07-30T18:44:10.073Z,21.10
2023-07-30T18:46:37.473Z,21.10
2023-07-30T18:49:04.361Z,21.20
2023-07-30T18:51:33.408Z,21.10
2023-07-30T18:54:00.103Z,21.10
2023-07-30T18:56:27.426Z,21.00
2023-07-30T18:58:54.176Z,21.10
2023-07-30T19:01:20.884Z,21.00
2023-07-30T19:03:50.181Z,20.60
2023-07-30T19:06:17.568Z,20.50
2023-07-30T19:08:53.631Z,20.50
2023-07-30T19:11:20.613Z,20.40
2023-07-30T19:13:47.315Z,20.40
2023-07-30T19:16:14.197Z,20.30
2023-07-30T19:18:43.180Z,20.40
2023-07-30T19:21:10.023Z,20.40
2023-07-30T19:23:39.032Z,20.60
2023-07-30T19:26:05.850Z,20.80
2023-07-30T19:28:36.898Z,20.80
2023-07-30T19:31:10.162Z,20.80
2023-07-30T19:33:39.904Z,20.70
2023-07-30T19:36:07.050Z,20.60
2023-07-30T19:38:33.872Z,20.70
2023-07-30T19:41:02.275Z,21.00
2023-07-30T19:43:30.360Z,20.80
2023-07-30T19:45:57.129Z,20.80
2023-07-30T19:48:24.564Z,20.70
2023-07-30T19:50:52.824Z,20.70
2023-07-30T19:53:22.930Z,20.70
2023-07-30T19:55:52.048Z,20.40
2023-07-30T19:58:30.026Z,20.30
2023-07-30T20:00:57.979Z,20.50
2023-07-30T20:03:27.554Z,20.30
2023-07-30T20:06:08.093Z,20.10
2023-07-30T20:08:36.562Z,20.00
2023-07-30T20:11:07.882Z,19.70
2023-07-30T20:13:34.798Z,19.80
2023-07-30T20:16:01.688Z,19.90
2023-07-30T20:18:31.573Z,20.00
2023-07-30T20:20:59.053Z,20.10
2023-07-30T20:23:28.528Z,20.20
2023-07-30T20:25:55.281Z,20.30
2023-07-30T20:28:22.115Z,20.20
2023-07-30T20:30:49.617Z,20.00
2023-07-30T20:33:16.617Z,19.80
2023-07-30T20:35:43.313Z,19.80
2023-07-30T20:38:10.081Z,19.90
2023-07-30T20:40:36.759Z,20.00
2023-07-30T20:43:03.428Z,19.90
2023-07-30T20:45:30.142Z,19.70
2023-07-30T20:47:56.883Z,19.60
2023-07-30T20:50:23.838Z,19.60
2023-07-30T20:52:50.637Z,19.60
2023-07-30T20:55:21.007Z,19.70
2023-07-30T20:57:47.755Z,19.70
2023-07-30T21:00:16.713Z,19.80
2023-07-30T21:02:43.520Z,19.70
2023-07-30T21:05:10.587Z,19.80
2023-07-30T21:07:42.047Z,19.80
2023-07-30T21:10:09.213Z,19.80
2023-07-30T21:12:39.706Z,19.60
2023-07-30T21:15:10.553Z,19.50
2023-07-30T21:17:38.567Z,19.40
2023-07-30T21:20:05.946Z,19.40
2023-07-30T21:22:32.866Z,19.40
2023-07-30T21:25:01.849Z,19.40
2023-07-30T21:27:30.788Z,19.50
2023-07-30T21:29:57.512Z,19.50
2023-07-30T21:32:28.814Z,19.60
2023-07-30T21:34:55.724Z,19.60
2023-07-30T21:37:22.463Z,19.60
2023-07-30T21:39:56.722Z,19.70
2023-07-30T21:42:23.540Z,19.70
2023-07-30T21:44:50.246Z,19.80
2023-07-30T21:47:19.751Z,19.80
2023-07-30T21:49:48.904Z,19.70
2023-07-30T21:52:29.013Z,19.40
2023-07-30T21:54:55.772Z,19.30
2023-07-30T21:57:25.047Z,19.30
2023-07-30T21:59:54.354Z,19.30
2023-07-30T22:02:24.285Z,19.20
2023-07-30T22:04:51.235Z,19.30
2023-07-30T22:07:18.089Z,19.30
2023-07-30T22:09:44.934Z,19.50
2023-07-30T22:12:13.859Z,19.50
2023-07-30T22:14:43.108Z,19.40
2023-07-30T22:17:14.840Z,19.30
2023-07-30T22:19:41.590Z,19.30
2023-07-30T22:22:09.889Z,19.30
2023-07-30T22:24:36.644Z,19.30
2023-07-30T22:27:03.528Z,19.30
2023-07-30T22:29:30.395Z,19.20
2023-07-30T22:31:57.236Z,19.10
2023-07-30T22:34:26.266Z,19.10
2023-07-30T22:36:52.954Z,19.10
2023-07-30T22:39:19.670Z,19.10
2023-07-30T22:41:46.411Z,19.10
2023-07-30T22:44:13.143Z,19.10
2023-07-30T22:46:42.610Z,19.00
2023-07-30T22:49:09.578Z,18.80
2023-07-30T22:51:36.325Z,18.90
2023-07-30T22:54:07.672Z,19.00
2023-07-30T22:56:37.356Z,19.00
2023-07-30T22:59:04.298Z,19.00
2023-07-30T23:01:33.407Z,19.10
2023-07-30T23:04:00.125Z,19.10
2023-07-30T23:06:27.515Z,19.10
2023-07-30T23:08:56.400Z,19.10
2023-07-30T23:11:25.618Z,19.00
2023-07-30T23:13:52.278Z,19.00
2023-07-30T23:16:19.036Z,18.90
2023-07-30T23:18:45.818Z,18.90
2023-07-30T23:21:15.068Z,18.80
2023-07-30T23:23:44.388Z,18.90
2023-07-30T23:26:11.246Z,19.00
2023-07-30T23:28:41.860Z,18.80
2023-07-30T23:31:10.855Z,18.80
2023-07-30T23:33:37.599Z,18.80
2023-07-30T23:36:09.220Z,18.90
2023-07-30T23:38:36.226Z,18.80
2023-07-30T23:41:03.958Z,18.80
2023-07-30T23:43:32.059Z,18.80
2023-07-30T23:45:59.095Z,18.70
2023-07-30T23:48:25.823Z,18.80
2023-07-30T23:51:04.160Z,18.90
2023-07-30T23:53:34.482Z,19.00
2023-07-30T23:56:01.283Z,18.90
2023-07-30T23:58:28.479Z,18.90
